x

Ne Puerto Rico - 170 Nm Nne Of San Juan, P R (41043) Wave Buoy

11:50am - Mon 27th Feb 2017 All times are AST. -4 hours from GMT.

  • Sig Wave height 4.6ft
  • Swell Direction
  • Peak Period 5s
  • Average Period 5s
  • Wind
    18mph, 22mph gusts
  • Sea Temp 79°f
  • Air Temp 79°f
  • Sea Pressure 1022.1mb
  • Ne Puerto Rico  - 170 Nm Nne Of San Juan,  P R
  • Ne Puerto Rico  - 170 Nm Nne Of San Juan,  P R

More Historic Weather Station data

Upgrade to MSW Pro to gain access to the past 30 days of data for over 8000 Wavebouys and Weather Stations around the globe.

Join Pro

Comparision Forecast

View Surf forecast
   
Mon 02/27 11:50am 4.5ft 5s 5s 18 22 mph 1022.1mb 79f 79f
11:40am  -   -   -  18 22 mph 1022.1mb 79f 79f
11:30am  -   -   -  18 22 mph 1022.2mb 79f 79f
11:20am  -   -   -  18 20 mph 1022.4mb 79f 79f
11:10am  -   -   -  18 22 mph 1022.4mb 79f 79f
11:00am  -   -   -  18 22 mph 1022.4mb 79f 79f
10:50am 4.5ft 5s 5s 18 22 mph 1022.5mb 79f 78f
10:40am  -   -   -  16 20 mph 1022.4mb 79f 78f
10:30am  -   -   -  18 22 mph 1022.4mb 79f 79f
10:20am  -   -   -  18 22 mph 1022.5mb 79f 79f
10:10am  -   -   -  18 22 mph 1022.4mb 79f 78f
10:00am  -   -   -  16 20 mph 1022.4mb - 78f
9:50am 4.5ft 8s 5s 16 18 mph 1022.2mb 79f 78f
9:40am  -   -   -  13 18 mph 1022.3mb 79f 78f
9:30am  -   -   -  13 18 mph 1022.1mb 79f 77f
9:20am  -   -   -  13 18 mph 1022.1mb 79f 77f
9:10am  -   -   -  16 20 mph - - -
9:00am  -   -   -  18 22 mph 1021.9mb 79f 77f
8:50am 5ft 8s 5s 16 20 mph 1021.7mb 79f 77f
8:40am  -   -   -  16 18 mph 1021.5mb 79f 77f
8:30am  -   -   -  16 18 mph 1021.3mb 79f 77f
8:20am  -   -   -  16 20 mph 1021.2mb 79f 77f
8:10am  -   -   -  16 18 mph 1021.1mb 79f 77f
8:00am  -   -   -  16 20 mph 1020.9mb 79f 77f
7:50am 5.5ft 6s 5s 13 18 mph 1020.9mb 79f 77f
7:40am 5.5ft  -  5s 16 18 mph 1020.8mb 79f 77f
7:30am  -   -   -  18 22 mph 1020.7mb 79f 77f
7:20am  -   -   -  18 22 mph 1020.5mb 79f 77f
7:10am  -   -   -  18 22 mph 1020.5mb 79f 77f
7:00am  -   -   -  20 25 mph 1020.4mb 79f 77f
6:50am 5ft 10s 5s 20 25 mph 1020.3mb 79f 77f
6:40am 5ft  -  5s 20 25 mph 1020.2mb 79f 77f
6:30am  -   -   -  18 22 mph 1020.1mb 79f 77f
6:20am  -   -   -  18 20 mph 1020mb 79f 77f
6:10am  -   -   -  18 20 mph 1019.7mb 79f 77f
6:00am  -   -   -  18 20 mph 1019.7mb 79f 77f
5:50am 5ft 8s 5s 18 20 mph 1019.4mb 79f 77f
5:40am  -   -   -  18 22 mph 1019.3mb 79f 77f
5:30am  -   -   -  18 20 mph 1019.1mb 79f 77f
5:20am  -   -   -  18 22 mph 1019.2mb 79f 77f
5:10am  -   -   -  16 20 mph 1019.1mb 79f 76f
5:00am  -   -   -  16 20 mph 1019.1mb 79f 76f
4:50am 5.5ft 8s 5s 18 22 mph 1018.9mb 79f 77f
4:40am 5.5ft  -  5s 16 20 mph 1019mb 79f 77f
4:30am  -   -   -  18 22 mph 1019mb 79f 77f
4:20am  -   -   -  16 20 mph 1018.9mb 79f 77f
4:10am  -   -   -  16 20 mph 1018.9mb 79f 77f
4:00am  -   -   -  18 20 mph 1018.9mb 79f 77f
3:50am 5ft 10s 5s 16 20 mph 1018.8mb 79f 77f
3:40am  -   -   -  13 18 mph 1019mb 79f 77f
3:30am  -   -   -  13 18 mph 1018.9mb 79f 77f
3:20am  -   -   -  13 18 mph 1018.9mb 79f 76f
3:10am  -   -   -  16 18 mph 1018.9mb 79f 76f
3:00am  -   -   -  13 18 mph 1019.2mb 79f 75f
2:50am 5ft 8s 5s 13 16 mph 1019.4mb 79f 75f
2:40am  -   -   -  13 20 mph 1019.4mb 79f 74f
2:30am  -   -   -  20 25 mph 1019.5mb 79f 75f
2:20am  -   -   -  18 29 mph 1019.5mb 79f 77f
2:10am  -   -   -  16 22 mph 1019.5mb 79f 77f
2:00am  -   -   -  18 20 mph 1019.7mb 79f 77f
1:50am 5ft 8s 5s 18 20 mph 1019.7mb 79f 77f
1:40am 5ft  -  5s 16 20 mph 1019.9mb 79f 77f
1:30am  -   -   -  16 20 mph 1020mb 79f 77f
1:20am  -   -   -  16 20 mph 1020mb 79f 77f
1:10am  -   -   -  16 20 mph 1020.1mb 79f 77f
1:00am  -   -   -  16 20 mph 1020.2mb 79f 77f
12:50am 4.5ft 8s 5s 16 18 mph 1020.2mb 79f 77f
12:40am  -   -   -  18 20 mph 1020.4mb 79f 77f
12:30am  -   -   -  16 22 mph 1020.4mb 79f 78f
12:20am  -   -   -  16 18 mph 1020.5mb 79f 78f
12:10am  -   -   -  16 18 mph 1020.5mb 79f 78f
12:00am  -   -   -  16 20 mph 1020.6mb 79f 78f
Sun 02/26 11:50pm 4.5ft 8s 5s 16 20 mph 1020.8mb 79f 78f
11:40pm 4.5ft  -  5s 16 20 mph 1020.7mb 79f 78f
11:30pm  -   -   -  16 18 mph 1020.9mb 79f 78f
11:20pm  -   -   -  16 18 mph 1020.9mb 79f 78f
11:10pm  -   -   -  16 18 mph 1021mb 79f 78f
11:00pm  -   -   -  16 18 mph 1021mb 79f 78f
10:50pm 4.5ft 8s 6s 13 18 mph 1021mb 79f 78f
10:40pm  -   -   -  16 20 mph 1021mb 79f 78f
10:30pm  -   -   -  16 18 mph 1021mb - 78f
10:20pm  -   -   -  16 20 mph 1021mb 79f 78f
10:10pm  -   -   -  16 20 mph 1020.8mb 79f 78f
10:00pm  -   -   -  16 18 mph 1021mb 79f 78f
9:50pm 4.5ft 8s 5s 16 20 mph 1020.8mb 79f 78f
9:40pm  -   -   -  16 20 mph 1020.9mb 79f 78f
9:30pm  -   -   -  16 18 mph 1020.9mb 79f 78f
9:20pm  -   -   -  16 20 mph 1020.8mb 79f 78f
9:10pm  -   -   -  16 18 mph 1020.8mb 79f 78f
9:00pm  -   -   -  16 18 mph 1020.6mb 79f 78f
8:50pm 4.5ft 9s 5s 13 18 mph 1020.6mb 79f 78f
8:40pm 4.5ft  -  5s 16 18 mph 1020.5mb 79f 78f
8:30pm  -   -   -  16 18 mph 1020.5mb 79f 78f
8:20pm  -   -   -  16 20 mph 1020.3mb 79f 78f
8:10pm  -   -   -  16 20 mph 1020.1mb 79f 78f
8:00pm  -   -   -  16 20 mph 1020.1mb 79f 78f
7:50pm 4.5ft 11s 5s 16 18 mph 1020mb 79f 78f
7:40pm 4.5ft  -  5s 16 18 mph 1019.9mb 79f 78f
7:30pm  -   -   -  16 20 mph - - -
7:20pm  -   -   -  16 18 mph 1019.7mb 79f 78f
7:10pm  -   -   -  16 20 mph 1019.6mb 79f 78f
7:00pm  -   -   -  16 20 mph 1019.4mb 79f 78f
6:50pm 4.5ft 8s 6s 16 18 mph 1019.4mb 79f 78f
6:40pm  -   -   -  13 18 mph 1019.3mb 79f 78f
6:30pm  -   -   -  16 18 mph 1019.3mb 79f 78f
6:20pm  -   -   -  16 18 mph 1019.2mb 79f 78f
6:10pm  -   -   -  16 18 mph 1019.2mb 79f 78f
6:00pm  -   -   -  16 18 mph 1019.2mb 79f 78f
5:50pm 4.5ft 11s 6s 16 18 mph 1019.1mb 79f 78f
5:40pm 4.5ft  -  6s 16 18 mph 1019mb 79f 78f
5:30pm  -   -   -  13 18 mph 1019mb 80f 78f
5:20pm  -   -   -  13 18 mph 1018.8mb 79f 78f
5:10pm  -   -   -  13 18 mph 1018.7mb - 78f
5:00pm  -   -   -  13 18 mph 1018.6mb 80f 78f
4:50pm 4.5ft 8s 6s 13 18 mph 1018.6mb 80f 78f
4:40pm 4.5ft  -  6s 13 18 mph 1018.5mb 80f 78f
4:30pm  -   -   -  13 18 mph 1018.5mb 80f 78f
4:20pm  -   -   -  13 16 mph 1018.4mb 80f 78f
4:10pm  -   -   -  13 18 mph 1018.4mb 80f 78f
4:00pm  -   -   -  13 18 mph 1018.3mb 80f 78f
3:50pm 4.5ft 8s 6s 13 16 mph 1018.2mb 80f 78f
3:40pm 4.5ft  -  6s 13 18 mph 1018.2mb 80f 78f
3:30pm  -   -   -  13 16 mph 1018.2mb 80f 78f
3:20pm  -   -   -  13 18 mph 1018.2mb 80f 78f
3:10pm  -   -   -  13 18 mph 1018.2mb 80f 78f
3:00pm  -   -   -  13 18 mph 1018.2mb 80f 78f
2:50pm 4.5ft 10s 6s 13 16 mph 1018.2mb 80f 78f
2:40pm  -   -   -  13 18 mph 1018.2mb 80f 78f
2:30pm  -   -   -  13 18 mph 1018.3mb 80f 78f
2:20pm  -   -   -  13 18 mph 1018.3mb 79f 78f
2:10pm  -   -   -  13 18 mph 1018.3mb 79f 78f
2:00pm  -   -   -  13 18 mph 1018.5mb 79f 78f
1:50pm 4.5ft 11s 6s 13 18 mph 1018.7mb 79f 78f
1:40pm  -   -   -  13 16 mph 1018.7mb 79f 78f
1:30pm  -   -   -  13 18 mph 1018.8mb 79f 78f
1:20pm  -   -   -  13 16 mph 1019mb 79f 78f
1:10pm  -   -   -  13 16 mph 1019.2mb 79f 78f
1:00pm  -   -   -  13 18 mph 1019.4mb 79f 78f
12:50pm 4.5ft 11s 6s 13 18 mph 1019.5mb 79f 78f
12:40pm  -   -   -  13 18 mph 1019.7mb 79f 78f
12:30pm  -   -   -  13 18 mph 1019.7mb 79f 78f
12:20pm  -   -   -  13 16 mph 1019.8mb 79f 78f
12:10pm  -   -   -  13 16 mph 1019.9mb 79f 78f
12:00pm  -   -   -  13 16 mph 1019.9mb 79f 78f
11:50am 4.5ft 8s 6s 13 16 mph 1020mb 79f 78f
11:40am 4.5ft  -  6s 13 18 mph 1020.1mb 79f 78f
11:30am  -   -   -  13 18 mph 1020.1mb 79f 78f
11:20am  -   -   -  16 18 mph 1020.1mb 79f 78f
11:10am  -   -   -  13 16 mph 1020.3mb 79f 78f
11:00am  -   -   -  13 18 mph 1020.3mb 79f 78f
10:50am 4.5ft 11s 6s 13 18 mph 1020.3mb 79f 78f
10:40am 4.5ft  -  6s 13 16 mph 1020.4mb 79f 78f
10:30am  -   -   -  13 16 mph 1020.5mb 79f 78f
10:20am  -   -   -  13 18 mph 1020.6mb 79f 78f
10:10am  -   -   -  13 16 mph 1020.6mb 79f 78f
10:00am  -   -   -  13 18 mph 1020.6mb 79f 78f
9:50am 5ft 11s 6s 13 18 mph 1020.5mb 79f 78f
9:40am  -   -   -  13 18 mph 1020.4mb 79f 78f
9:30am  -   -   -  13 16 mph 1020.4mb 79f 78f
9:20am  -   -   -  13 16 mph 1020.2mb 79f 78f
9:10am  -   -   -  13 16 mph 1020.2mb 79f 78f
9:00am  -   -   -  13 16 mph 1020.1mb 79f 78f
8:50am 4.5ft 11s 6s 11 16 mph 1020mb - 78f
8:40am  -   -   -  11 13 mph 1019.8mb 79f 78f
8:30am  -   -   -  11 13 mph 1019.6mb 79f 78f
8:20am  -   -   -  11 13 mph 1019.5mb 79f 77f
8:10am  -   -   -  11 16 mph 1019.4mb 79f 77f
8:00am  -   -   -  13 16 mph 1019.3mb 79f 78f
7:50am 5ft 11s 7s 13 16 mph 1019.1mb 79f 77f
7:40am 5ft  -  7s 13 16 mph 1019mb 79f 78f
7:30am  -   -   -  11 16 mph 1018.8mb 79f 77f
7:20am  -   -   -  11 16 mph 1018.6mb 79f 77f
7:10am  -   -   -  11 16 mph 1018.4mb 79f 77f
7:00am  -   -   -  13 16 mph 1018.3mb 79f 77f
6:50am 5ft 11s 7s 13 16 mph 1018.2mb 79f 77f
6:40am 5ft  -  7s 13 16 mph 1018mb 79f 77f
6:30am  -   -   -  13 16 mph 1017.9mb 79f 77f
6:20am  -   -   -  11 13 mph 1017.9mb 79f 77f
6:10am  -   -   -  13 16 mph 1017.8mb 79f 77f
6:00am  -   -   -  11 13 mph 1017.6mb 79f 77f
5:50am 5ft 11s 7s 11 13 mph 1017.6mb 79f 77f
5:40am 5ft  -  7s 9 13 mph 1017.6mb 79f 77f
5:30am  -   -   -  9 13 mph 1017.5mb 79f 77f
5:20am  -   -   -  9 13 mph 1017.4mb 79f 77f
5:10am  -   -   -  11 13 mph 1017.4mb 79f 77f
5:00am  -   -   -  11 13 mph 1017.3mb 79f 77f
4:50am 5ft 11s 7s 9 13 mph 1017.2mb 79f 77f
4:40am  -   -   -  9 13 mph 1017.2mb 79f 77f
4:30am  -   -   -  9 11 mph 1017.2mb 79f 77f
4:20am  -   -   -  9 11 mph 1017.1mb 79f 77f
4:10am  -   -   -  9 11 mph 1017mb 79f 77f
4:00am  -   -   -  9 11 mph 1017mb 79f 77f
3:50am 5ft 11s 7s 9 13 mph 1017mb 79f 77f
3:40am  -   -   -  9 13 mph 1017mb 79f 77f
3:30am  -   -   -  11 16 mph 1017.1mb 79f 77f
3:20am  -   -   -  11 13 mph 1017.2mb 79f 77f
3:10am  -   -   -  11 13 mph 1017.2mb 79f 77f
3:00am  -   -   -  11 13 mph 1017.2mb 79f 78f
2:50am 5ft 12s 7s 9 11 mph 1017.3mb 79f 77f
2:40am  -   -   -  9 13 mph 1017.3mb 79f 78f
2:30am  -   -   -  11 13 mph 1017.4mb 79f 78f
2:20am  -   -   -  11 13 mph 1017.4mb 79f 78f
2:10am  -   -   -  11 16 mph 1017.6mb 79f 78f
2:00am  -   -   -  11 13 mph 1017.7mb 79f 78f
1:50am 5ft 11s 7s 11 13 mph 1017.8mb 79f 78f
1:40am 5ft  -  7s 11 13 mph 1017.9mb 79f 78f
1:30am  -   -   -  11 16 mph 1018.1mb 79f 78f
1:20am  -   -   -  11 13 mph 1018.2mb 79f 78f
1:10am  -   -   -  11 13 mph 1018.3mb 79f 78f
1:00am  -   -   -  11 13 mph 1018.4mb 79f 78f
12:50am 5ft 11s 7s 11 13 mph 1018.6mb 79f 78f
12:40am  -   -   -  11 16 mph 1018.6mb 79f 78f
12:30am  -   -   -  9 13 mph 1018.7mb 80f 78f
12:20am  -   -   -  11 13 mph 1018.7mb 80f 78f
12:10am  -   -   -  11 16 mph 1018.8mb 80f 78f
12:00am  -   -   -  11 13 mph 1018.8mb 80f 78f
Sat 02/25 11:50pm 4.5ft 11s 7s 11 13 mph 1018.8mb 80f 78f
11:40pm  -   -   -  11 13 mph 1018.9mb 80f 78f
11:30pm  -   -   -  11 13 mph 1018.9mb 79f 78f
11:20pm  -   -   -  11 13 mph 1018.9mb 79f 78f
11:10pm  -   -   -  11 16 mph 1018.9mb 80f 78f
11:00pm  -   -   -  11 16 mph 1018.9mb 80f 78f
10:50pm 5ft 12s 7s 11 13 mph 1019mb 79f 78f
10:40pm  -   -   -  11 16 mph 1019mb 80f 78f
10:30pm  -   -   -  11 13 mph 1019.1mb 80f 78f
10:20pm  -   -   -  11 13 mph 1019.1mb 80f 78f
10:10pm  -   -   -  11 13 mph 1019mb 80f 78f
10:00pm  -   -   -  11 13 mph 1018.9mb 80f 78f
9:50pm 5ft 11s 7s 11 13 mph 1018.9mb 80f 78f
9:40pm  -   -   -  11 13 mph 1018.8mb 80f 78f
9:30pm  -   -   -  11 13 mph 1018.6mb 80f 78f
9:20pm  -   -   -  9 11 mph 1018.6mb 80f 78f
9:10pm  -   -   -  9 11 mph 1018.6mb 80f 78f
9:00pm  -   -   -  9 13 mph 1018.5mb 80f 78f
8:50pm 5ft 12s 7s 9 11 mph 1018.4mb 80f 78f
8:40pm 5ft  -  7s 9 11 mph 1018.3mb 80f 78f
8:30pm  -   -   -  7 11 mph 1018.2mb - 78f
8:20pm  -   -   -  7 11 mph 1018.1mb - 78f
8:10pm  -   -   -  9 11 mph 1018mb 80f 78f
8:00pm  -   -   -  7 9 mph 1017.8mb - 78f
7:50pm 5ft 12s 7s 9 11 mph 1017.7mb 80f 78f
7:40pm  -   -   -  9 11 mph 1017.5mb 80f 78f
7:30pm  -   -   -  9 11 mph 1017.4mb 80f 78f
7:20pm  -   -   -  9 11 mph 1017.3mb 80f 78f
7:10pm  -   -   -  7 11 mph 1017.2mb 80f 78f
7:00pm  -   -   -  7 9 mph 1017.1mb 80f 78f
6:50pm 5ft 12s 7s 7 9 mph 1017mb 80f 78f
6:40pm  -   -   -  7 11 mph 1017mb 80f 78f
6:30pm  -   -   -  7 11 mph 1016.9mb 80f 78f
6:20pm  -   -   -  7 9 mph 1016.8mb 80f 79f
6:10pm  -   -   -  4 7 mph 1016.8mb 80f 79f
6:00pm  -   -   -  4 7 mph 1016.7mb 80f 79f
5:50pm 5.5ft 11s 7s 4 7 mph 1016.6mb 80f 79f
5:40pm 5.5ft  -  7s 4 7 mph 1016.5mb 80f 79f
5:30pm  -   -   -  4 7 mph 1016.5mb 80f 79f
5:20pm  -   -   -  2 7 mph 1016.5mb 80f 79f
5:10pm  -   -   -  4 7 mph 1016.4mb 80f 79f
5:00pm  -   -   -  4 7 mph 1016.3mb 80f 79f
4:50pm 5ft 11s 6s 7 9 mph 1016.3mb 80f 79f
4:40pm 5ft  -  6s 7 11 mph 1016.3mb 80f 79f
4:30pm  -   -   -  9 11 mph 1016.2mb 80f 79f
4:20pm  -   -   -  9 11 mph 1016.1mb 80f 79f
4:10pm  -   -   -  9 13 mph 1016.1mb 80f 79f
4:00pm  -   -   -  9 13 mph 1016mb 80f 79f
3:50pm 5.5ft 11s 7s 9 11 mph 1016.1mb 80f 79f
3:40pm  -   -   -  9 13 mph 1016.1mb 80f 79f
3:30pm  -   -   -  9 11 mph 1016.1mb 80f 79f
3:20pm  -   -   -  9 13 mph 1016mb 80f 79f
3:10pm  -   -   -  9 13 mph 1016mb 80f 79f
3:00pm  -   -   -  9 11 mph 1016mb 80f 79f
2:50pm 5ft 12s 7s 9 13 mph 1016.1mb 80f 79f
2:40pm 5ft  -  7s 9 13 mph 1016.1mb 80f 79f
2:30pm  -   -   -  9 11 mph 1016.2mb 80f 79f
2:20pm  -   -   -  11 13 mph 1016.2mb 80f 79f
2:10pm  -   -   -  11 16 mph 1016.3mb 80f 79f
2:00pm  -   -   -  11 13 mph 1016.3mb 80f 78f
1:50pm 5.5ft 8s 7s 11 13 mph 1016.5mb 80f 78f
1:40pm 5.5ft  -  7s 11 13 mph 1016.6mb 80f 78f
1:30pm  -   -   -  11 13 mph 1016.8mb 80f 78f
1:20pm  -   -   -  9 13 mph 1016.9mb 80f 78f
1:10pm  -   -   -  11 13 mph 1016.9mb 80f 78f
1:00pm  -   -   -  11 13 mph 1016.9mb 80f 78f
12:50pm 6ft 12s 7s 11 13 mph 1017mb 80f 79f
12:40pm 6ft  -  7s 11 13 mph 1017.2mb 80f 79f
12:30pm  -   -   -  11 16 mph 1017.4mb 80f 79f
12:20pm  -   -   -  11 13 mph 1017.4mb 80f 78f
12:10pm  -   -   -  11 13 mph 1017.6mb 80f 79f
12:00pm  -   -   -  11 13 mph 1017.8mb 80f 79f
11:50am 5.5ft 11s 7s 11 13 mph 1017.9mb 80f 79f
11:40am 5.5ft  -  7s 11 13 mph 1017.9mb 80f 78f
11:30am  -   -   -  11 13 mph 1017.9mb 80f 78f
11:20am  -   -   -  9 13 mph 1018.1mb 80f 79f
11:10am  -   -   -  9 11 mph 1018.2mb 80f 78f
11:00am  -   -   -  9 13 mph 1018.2mb 80f 79f
10:50am 6ft 13s 7s 9 13 mph 1018.3mb 79f 79f
10:40am 6ft  -  7s 9 11 mph 1018.3mb - 79f
10:30am  -   -   -  9 13 mph 1018.3mb 79f 79f
10:20am  -   -   -  9 13 mph 1018.2mb 79f 79f
10:10am  -   -   -  11 13 mph 1018.1mb 79f 79f
10:00am  -   -   -  9 13 mph 1018.1mb 79f 78f
9:50am 6ft 12s 7s 9 11 mph 1018mb 79f 78f
9:40am 6ft  -  7s 11 16 mph 1017.8mb 79f 78f
9:30am  -   -   -  9 13 mph 1017.8mb 79f 77f
9:20am  -   -   -  4 11 mph 1017.8mb 79f 76f
9:10am  -   -   -  11 18 mph 1017.7mb 79f 77f
9:00am  -   -   -  9 13 mph 1017.4mb 79f 78f
8:50am 6ft 12s 7s 11 13 mph 1017.3mb 79f 78f
8:40am  -   -   -  11 16 mph 1017.2mb 79f 78f
8:30am  -   -   -  11 16 mph 1017mb - 78f
8:20am  -   -   -  11 16 mph 1016.9mb 79f 78f
8:10am  -   -   -  11 16 mph 1016.8mb 79f 78f
8:00am  -   -   -  11 13 mph 1016.8mb 79f 78f
7:50am 6ft 12s 7s 11 16 mph 1016.7mb 79f 78f
7:40am 6ft  -  7s 11 13 mph 1016.6mb 79f 78f
7:30am  -   -   -  11 13 mph 1016.5mb 79f 78f
7:20am  -   -   -  9 11 mph 1016.4mb 79f 78f
7:10am  -   -   -  9 11 mph 1016.3mb 79f 78f
7:00am  -   -   -  9 11 mph 1016.2mb 79f 78f
6:50am 6ft 11s 7s 9 11 mph 1016.1mb 79f 78f
6:40am 6ft  -  7s 9 11 mph 1015.9mb - 78f
6:30am  -   -   -  9 11 mph 1015.8mb 79f 78f
6:20am  -   -   -  9 11 mph 1015.6mb 79f 78f
6:10am  -   -   -  7 11 mph 1015.6mb 79f 78f
6:00am  -   -   -  7 11 mph 1015.4mb 79f 78f
5:50am 6.5ft 12s 7s 7 9 mph 1015.3mb 79f 78f
5:40am  -   -   -  7 11 mph 1015.2mb 79f 78f
5:30am  -   -   -  9 11 mph 1015.1mb 79f 78f
5:20am  -   -   -  9 11 mph 1015mb 79f 78f
5:10am  -   -   -  9 11 mph 1015mb 79f 78f
5:00am  -   -   -  9 11 mph 1014.9mb 79f 78f
4:50am 6.5ft 13s 7s 9 13 mph 1014.8mb 79f 78f
4:40am 6.5ft  -  7s 11 13 mph 1014.8mb 79f 78f
4:30am  -   -   -  11 13 mph 1014.8mb 79f 78f
4:20am  -   -   -  11 13 mph 1014.8mb 79f 78f
4:10am  -   -   -  11 13 mph 1014.7mb 79f 78f
4:00am  -   -   -  11 16 mph 1014.7mb 79f 78f
3:50am 6.5ft 13s 7s 11 13 mph 1014.8mb 79f 78f
3:40am  -   -   -  11 13 mph 1014.7mb 79f 78f
3:30am  -   -   -  11 16 mph 1014.8mb 79f 78f
3:20am  -   -   -  11 16 mph 1014.8mb 79f 78f
3:10am  -   -   -  11 13 mph 1014.8mb 79f 78f
3:00am  -   -   -  11 13 mph 1014.9mb 79f 78f
2:50am 6.5ft 13s 7s 9 13 mph 1014.9mb 79f 78f
2:40am 6.5ft  -  7s 11 13 mph 1015mb 79f 78f
2:30am  -   -   -  11 13 mph 1015.2mb 79f 78f
2:20am  -   -   -  11 16 mph 1015.2mb 79f 78f
2:10am  -   -   -  11 16 mph 1015.2mb 79f 78f
2:00am  -   -   -  11 16 mph 1015.3mb 79f 78f
1:50am 7ft 13s 7s 13 16 mph 1015.4mb 79f 78f
1:40am  -   -   -  11 16 mph 1015.4mb 79f 78f
1:30am  -   -   -  13 16 mph 1015.5mb 79f 78f
1:20am  -   -   -  13 16 mph 1015.5mb 79f 78f
1:10am  -   -   -  11 16 mph 1015.8mb 79f 78f
1:00am  -   -   -  11 16 mph 1015.8mb 79f 78f
12:50am 7ft 12s 7s 11 16 mph 1015.9mb 79f 78f
12:40am 7ft  -  7s 11 16 mph 1015.9mb 79f 78f
12:30am  -   -   -  11 13 mph 1015.9mb 79f 78f
12:20am  -   -   -  11 16 mph 1016mb 79f 78f
12:10am  -   -   -  11 16 mph 1016mb 79f 78f
12:00am  -   -   -  11 13 mph 1015.9mb 79f 78f
Fri 02/24 11:50pm 7ft 13s 7s 11 13 mph 1015.9mb 79f 78f
11:40pm  -   -   -  11 16 mph 1016mb 79f 78f
11:30pm  -   -   -  11 16 mph 1016mb 79f 78f
11:20pm  -   -   -  11 16 mph 1016mb 79f 78f
11:10pm  -   -   -  11 13 mph 1016.1mb 79f 78f
11:00pm  -   -   -  11 13 mph 1016.1mb 79f 78f
10:50pm 7.5ft 13s 7s 11 13 mph 1016.1mb 79f 78f
10:40pm 7.5ft  -  7s 9 13 mph 1016.1mb 79f 78f
10:30pm  -   -   -  11 13 mph 1016mb 79f 78f
10:20pm  -   -   -  11 13 mph 1016mb 79f 78f
10:10pm  -   -   -  11 13 mph 1016mb 79f 78f
10:00pm  -   -   -  11 13 mph 1015.9mb 79f 78f
9:50pm 7.5ft 12s 8s 9 13 mph 1015.8mb 79f 78f
9:40pm  -   -   -  9 13 mph 1015.8mb 79f 78f
9:30pm  -   -   -  11 13 mph 1015.7mb 79f 78f
9:20pm  -   -   -  11 13 mph 1015.7mb 79f 78f
9:10pm  -   -   -  11 13 mph 1015.7mb 79f 78f
9:00pm  -   -   -  9 13 mph 1015.6mb 79f 77f
8:50pm 7ft 13s 7s 11 16 mph 1015.5mb 79f 77f
8:40pm 7ft  -  7s 11 16 mph 1015.4mb 79f 78f
8:30pm  -   -   -  11 13 mph 1015.3mb 79f 78f
8:20pm  -   -   -  11 13 mph 1015.2mb 79f 78f
8:10pm  -   -   -  11 13 mph 1015.1mb 79f 77f
8:00pm  -   -   -  9 13 mph 1015.1mb 79f 77f
7:50pm 7.5ft 12s 7s 11 13 mph 1014.8mb 79f 77f
7:40pm 7.5ft  -  7s 7 13 mph 1014.7mb 79f 77f
7:30pm  -   -   -  7 9 mph 1014.6mb 79f 76f
7:20pm  -   -   -  7 11 mph 1014.5mb 79f 77f
7:10pm  -   -   -  11 13 mph 1014.4mb 80f 77f
7:00pm  -   -   -  11 13 mph 1014.5mb 80f 77f
6:50pm 8ft 13s 8s 11 13 mph 1014.4mb 80f 77f
6:40pm 8ft  -  8s 11 13 mph 1014.3mb 79f 77f
6:30pm  -   -   -  11 13 mph 1014.2mb 79f 77f
6:20pm  -   -   -  11 13 mph 1014.2mb 80f 77f
6:10pm  -   -   -  11 13 mph 1014.2mb 80f 77f
6:00pm  -   -   -  11 13 mph 1014.2mb 80f 76f
5:50pm 8ft 12s 8s 11 13 mph 1014.3mb 80f 76f
5:40pm  -   -   -  11 13 mph 1014.2mb 80f 76f
5:30pm  -   -   -  13 18 mph 1014.2mb 80f 77f
5:20pm  -   -   -  11 16 mph 1014.2mb 80f 78f
5:10pm  -   -   -  11 16 mph 1014.2mb 80f 78f
5:00pm  -   -   -  9 13 mph 1014.2mb 80f 78f
4:50pm 8ft 10s 7s 9 13 mph 1014.1mb 80f 78f
4:40pm  -   -   -  9 13 mph 1014.1mb 80f 78f
4:30pm  -   -   -  9 11 mph 1014mb 80f 78f
4:20pm  -   -   -  9 11 mph 1014mb 80f 78f
4:10pm  -   -   -  9 13 mph 1014mb 80f 78f
4:00pm  -   -   -  7 11 mph 1014mb 80f 78f
3:50pm 8.5ft 13s 8s 9 13 mph 1014mb 80f 77f
3:40pm  -   -   -  11 16 mph 1013.9mb 80f 78f
3:30pm  -   -   -  9 11 mph 1014mb 80f 78f
3:20pm  -   -   -  9 11 mph 1013.9mb 80f 78f
3:10pm  -   -   -  9 13 mph 1014mb 80f 78f
3:00pm  -   -   -  11 16 mph 1014mb 80f 78f
2:50pm 9ft 13s 8s 11 16 mph 1014.1mb 80f 78f
2:40pm 9ft  -  8s 13 18 mph 1014.1mb 80f 78f
2:30pm  -   -   -  11 13 mph 1014.2mb 80f 79f
2:20pm  -   -   -  11 13 mph 1014.3mb 80f 79f
2:10pm  -   -   -  9 13 mph 1014.3mb 80f 78f
2:00pm  -   -   -  9 13 mph 1014.4mb 80f 78f
1:50pm 9ft 14s 7s 11 13 mph 1014.4mb 80f 78f
1:40pm 9ft  -  7s 11 13 mph 1014.6mb 80f 78f
1:30pm  -   -   -  11 13 mph 1014.7mb 80f 78f
1:20pm  -   -   -  11 13 mph 1014.8mb 79f 78f
1:10pm  -   -   -  11 13 mph 1014.9mb 79f 78f
1:00pm  -   -   -  11 16 mph 1015mb 79f 78f
12:50pm 8ft 13s 7s 13 18 mph 1015.2mb 79f 78f
12:40pm 8ft  -  7s 13 16 mph 1015.4mb 79f 78f
12:30pm  -   -   -  13 18 mph 1015.5mb 79f 78f
12:20pm  -   -   -  13 18 mph 1015.6mb 79f 78f
12:10pm  -   -   -  13 18 mph 1015.8mb 79f 78f
12:00pm  -   -   -  16 18 mph 1015.8mb 79f 78f
11:50am 9ft 13s 8s 16 20 mph 1016mb 79f 78f
11:40am  -   -   -  16 18 mph 1016.1mb 79f 78f
11:30am  -   -   -  16 18 mph 1016.2mb 79f 78f
11:20am  -   -   -  16 20 mph 1016.3mb 79f 78f
11:10am  -   -   -  16 20 mph 1016.4mb 79f 78f
11:00am  -   -   -  16 20 mph 1016.4mb 79f 78f
10:50am 9ft 13s 8s 16 20 mph 1016.3mb 79f 78f
10:40am 9ft  -  8s 16 20 mph 1016.3mb 79f 78f
10:30am  -   -   -  16 20 mph - - -
10:20am  -   -   -  18 22 mph 1016.2mb 79f 77f
10:10am  -   -   -  16 20 mph 1016.2mb 79f 77f
10:00am  -   -   -  16 20 mph 1016.2mb 79f 77f
9:50am 9.5ft 13s 8s 16 20 mph 1016mb 79f 77f
9:40am  -   -   -  16 18 mph 1016.1mb 79f 77f
9:30am  -   -   -  16 20 mph 1016.1mb 79f 77f
9:20am  -   -   -  16 20 mph 1016.1mb 79f 77f
9:10am  -   -   -  16 22 mph 1016mb 79f 77f
9:00am  -   -   -  16 20 mph 1015.8mb 79f 77f
8:50am 9ft 12s 7s 16 20 mph 1015.7mb 79f 77f
8:40am 9ft  -  7s 16 18 mph 1015.5mb 79f 77f
8:30am  -   -   -  16 20 mph 1015.4mb 79f 77f
8:20am  -   -   -  16 20 mph 1015.4mb 79f 77f
8:10am  -   -   -  13 18 mph 1015.3mb 79f 76f
8:00am  -   -   -  16 20 mph 1015.2mb 79f 76f
7:50am 9ft 12s 7s 16 20 mph 1015.2mb 79f 76f
7:40am 9ft  -  7s 18 22 mph 1015.1mb 79f 76f
7:30am  -   -   -  18 22 mph 1015.1mb 79f 76f
7:20am  -   -   -  18 22 mph 1014.9mb 79f 77f
7:10am  -   -   -  18 22 mph 1014.8mb 79f 77f
7:00am  -   -   -  18 22 mph 1014.7mb 79f 77f
6:50am 10ft 12s 7s 18 22 mph 1014.5mb 79f 77f
6:40am 10ft  -  7s 20 25 mph 1014.5mb 79f 77f
6:30am  -   -   -  20 25 mph 1014.3mb 79f 76f
6:20am  -   -   -  22 27 mph 1014.1mb 79f 77f
6:10am  -   -   -  20 25 mph 1013.8mb 79f 77f
6:00am  -   -   -  18 22 mph 1013.7mb 79f 77f
5:50am 9.5ft 13s 7s 18 25 mph 1013.7mb 79f 76f
5:40am 9.5ft  -  7s 20 25 mph 1013.5mb 79f 76f
5:30am  -   -   -  18 22 mph 1013.6mb 79f 76f
5:20am  -   -   -  20 25 mph 1013.5mb 79f 76f
5:10am  -   -   -  18 22 mph 1013.5mb 79f 76f
5:00am  -   -   -  18 22 mph 1013.5mb 79f 76f
4:50am 9.5ft 14s 7s 18 22 mph 1013.5mb 79f 76f
4:40am 9.5ft  -  7s 18 22 mph 1013.5mb 79f 76f
4:30am  -   -   -  18 22 mph 1013.5mb 79f 76f
4:20am  -   -   -  18 22 mph 1013.3mb 79f 75f
4:10am  -   -   -  18 25 mph 1013.4mb 79f 74f
4:00am  -   -   -  18 25 mph 1013.4mb 79f 74f
3:50am 9.5ft 13s 7s 18 22 mph 1013.3mb 79f 75f
3:40am  -   -   -  18 22 mph 1013.4mb 79f 75f
3:30am  -   -   -  20 25 mph 1013.4mb 79f 75f
3:20am  -   -   -  20 27 mph 1013.6mb 79f 75f
3:10am  -   -   -  16 22 mph 1013.7mb 79f 74f
3:00am  -   -   -  16 20 mph 1013.9mb 79f 74f
2:50am 10ft 13s 7s 18 22 mph 1013.9mb 79f 74f
2:40am 10ft  -  7s 20 25 mph 1013.9mb 79f 75f
2:30am  -   -   -  20 27 mph 1014mb 79f 75f
2:20am  -   -   -  20 25 mph 1014.1mb 79f 75f
2:10am  -   -   -  20 27 mph 1014.2mb 79f 75f
2:00am  -   -   -  20 25 mph 1014.3mb 79f 75f
1:50am 9.5ft 13s 7s 18 25 mph 1014.4mb 79f 76f
1:40am  -   -   -  18 22 mph 1014.5mb 79f 76f
1:30am  -   -   -  20 25 mph 1014.7mb 79f 75f
1:20am  -   -   -  18 25 mph 1014.8mb 79f 75f
1:10am  -   -   -  20 25 mph 1015mb 79f 75f
1:00am  -   -   -  20 27 mph 1015mb 79f 75f
12:50am 9.5ft 12s 7s 20 27 mph 1015mb 79f 76f
12:40am  -   -   -  20 27 mph 1015.1mb 79f 76f
12:30am  -   -   -  20 29 mph 1015.2mb 79f 76f
12:20am  -   -   -  20 27 mph 1015.1mb 79f 76f
12:10am  -   -   -  20 22 mph 1015.1mb 79f 74f
12:00am  -   -   -  20 27 mph 1015.3mb 79f 74f
Thu 02/23 11:50pm 10.5ft 13s 7s 20 27 mph 1015.3mb 79f 75f
11:40pm 10.5ft  -  7s 20 25 mph 1015.2mb 79f 75f
11:30pm  -   -   -  22 29 mph 1015.3mb 79f 75f
11:20pm  -   -   -  20 29 mph 1015.3mb 79f 75f
11:10pm  -   -   -  20 29 mph 1015.1mb 79f 75f
11:00pm  -   -   -  20 29 mph 1015.1mb 79f 76f
10:50pm 10ft 13s 7s 20 27 mph 1014.9mb 79f 77f
10:40pm 10ft  -  7s 20 27 mph 1014.7mb 79f 77f
10:30pm  -   -   -  20 27 mph 1014.6mb 79f 77f
10:20pm  -   -   -  20 27 mph 1014.6mb 79f 76f
10:10pm  -   -   -  20 29 mph 1014.7mb 79f 77f
10:00pm  -   -   -  22 27 mph 1014.6mb 79f 77f
9:50pm 9ft 12s 7s 20 25 mph 1014.6mb 79f 77f
9:40pm  -   -   -  20 25 mph 1014.5mb 79f 77f
9:20pm  -   -   -  20 25 mph 1014.4mb 79f 77f
9:10pm  -   -   -  22 27 mph 1014.3mb 79f 77f
9:00pm  -   -   -  22 27 mph 1014.3mb - 77f
8:50pm 9ft 12s 7s 20 25 mph 1014.3mb 79f 77f
8:40pm  -   -   -  22 25 mph 1014.3mb 79f 77f
8:30pm  -   -   -  20 27 mph 1014.3mb 79f 77f
8:20pm  -   -   -  22 27 mph 1014.2mb 79f 77f
8:10pm  -   -   -  22 27 mph 1014mb 79f 77f
8:00pm  -   -   -  20 27 mph 1014mb 79f 77f
7:50pm 9ft 11s 7s 22 27 mph 1013.9mb 79f 77f
7:40pm 9ft  -  7s 22 27 mph 1013.9mb 79f 77f
7:30pm  -   -   -  20 25 mph 1013.7mb 79f 77f
7:20pm  -   -   -  20 27 mph 1013.5mb 79f 77f
7:10pm  -   -   -  20 25 mph 1013.5mb 79f 77f
7:00pm  -   -   -  22 27 mph 1013.4mb 79f 77f
6:50pm 8.5ft 11s 7s 20 27 mph - - -
6:40pm 8.5ft  -  7s 20 25 mph 1013.3mb 79f 77f
6:30pm  -   -   -  20 25 mph 1013.5mb 79f 77f
6:20pm  -   -   -  18 22 mph 1013.5mb 79f 77f
6:10pm  -   -   -  20 25 mph 1013.3mb 79f 77f
6:00pm  -   -   -  18 22 mph 1013.4mb 79f 77f
5:50pm 9.5ft 11s 8s 18 22 mph 1013.3mb 79f 77f
5:40pm 9.5ft  -  8s 18 22 mph 1013.3mb 79f 77f
5:30pm  -   -   -  18 22 mph 1013.4mb 79f 77f
5:20pm  -   -   -  18 25 mph 1013.3mb 79f 76f
5:10pm  -   -   -  20 22 mph 1013.4mb 79f 76f
5:00pm  -   -   -  18 25 mph 1013.2mb 79f 76f
4:50pm 8ft 11s 7s 18 22 mph 1013.1mb 79f 76f